createdAt,value
2019-05-18T00:01:29.584Z,15.57
2019-05-18T00:03:57.341Z,17.03
2019-05-18T00:06:25.054Z,18.57
2019-05-18T00:08:52.703Z,17.63
2019-05-18T00:11:20.349Z,14.63
2019-05-18T00:13:48.033Z,14.67
2019-05-18T00:16:15.712Z,15.23
2019-05-18T00:18:43.433Z,16.37
2019-05-18T00:21:11.156Z,15.23
2019-05-18T00:23:38.833Z,14.83
2019-05-18T00:26:06.475Z,14.20
2019-05-18T00:28:34.140Z,14.63
2019-05-18T00:31:01.918Z,14.50
2019-05-18T00:33:29.758Z,18.63
2019-05-18T00:35:57.408Z,15.03
2019-05-18T00:38:25.054Z,14.17
2019-05-18T00:40:52.712Z,14.07
2019-05-18T00:43:20.359Z,16.03
2019-05-18T00:45:48.013Z,16.90
2019-05-18T00:48:15.660Z,14.10
2019-05-18T00:50:43.344Z,13.80
2019-05-18T00:53:10.997Z,13.83
2019-05-18T00:55:38.653Z,14.17
2019-05-18T00:58:06.299Z,13.03
2019-05-18T01:00:33.947Z,13.37
2019-05-18T01:03:01.614Z,13.90
2019-05-18T01:05:29.458Z,14.37
2019-05-18T01:07:57.181Z,14.00
2019-05-18T01:10:24.841Z,13.67
2019-05-18T01:12:52.488Z,13.93
2019-05-18T01:15:20.153Z,13.10
2019-05-18T01:17:56.931Z,16.17
2019-05-18T01:20:17.166Z,13.20
2019-05-18T01:22:44.826Z,16.20
2019-05-18T01:25:12.491Z,14.50
2019-05-18T01:27:40.148Z,13.97
2019-05-18T01:30:07.878Z,15.53
2019-05-18T01:32:35.560Z,14.33
2019-05-18T01:35:03.249Z,14.20
2019-05-18T01:37:30.906Z,14.47
2019-05-18T01:39:58.552Z,15.10
2019-05-18T01:42:26.200Z,13.23
2019-05-18T01:44:53.853Z,14.33
2019-05-18T01:47:21.520Z,13.67
2019-05-18T01:49:49.221Z,15.33
2019-05-18T01:52:16.968Z,14.30
2019-05-18T01:54:44.622Z,14.97
2019-05-18T01:57:12.267Z,14.50
2019-05-18T01:59:39.932Z,14.80
2019-05-18T02:02:07.591Z,14.57
2019-05-18T02:04:35.279Z,14.50
2019-05-18T02:07:03.015Z,15.13
2019-05-18T02:09:30.726Z,15.73
2019-05-18T02:11:58.375Z,15.60
2019-05-18T02:14:26.089Z,13.90
2019-05-18T02:16:53.975Z,13.23
2019-05-18T02:19:24.446Z,14.43
2019-05-18T02:21:50.990Z,13.20
2019-05-18T02:24:18.633Z,14.93
2019-05-18T02:26:46.332Z,14.90
2019-05-18T02:29:14.020Z,14.97
2019-05-18T02:31:41.693Z,15.23
2019-05-18T02:34:09.361Z,15.70
2019-05-18T02:36:37.071Z,15.90
2019-05-18T02:39:06.268Z,14.80
2019-05-18T02:41:33.981Z,16.63
2019-05-18T02:44:01.627Z,13.70
2019-05-18T02:46:29.302Z,15.43
2019-05-18T02:48:56.944Z,16.00
2019-05-18T02:51:24.603Z,14.00
2019-05-18T02:53:52.255Z,13.37
2019-05-18T02:56:19.918Z,13.93
2019-05-18T02:58:47.576Z,14.20
2019-05-18T03:01:15.230Z,12.80
2019-05-18T03:03:42.879Z,16.33
2019-05-18T03:06:10.644Z,13.13
2019-05-18T03:08:38.318Z,13.30
2019-05-18T03:11:05.971Z,13.93
2019-05-18T03:13:33.621Z,12.93
2019-05-18T03:16:01.284Z,13.90
2019-05-18T03:18:28.958Z,14.60
2019-05-18T03:20:56.693Z,16.10
2019-05-18T03:23:24.345Z,15.37
2019-05-18T03:25:52.002Z,16.93
2019-05-18T03:28:19.731Z,15.80
2019-05-18T03:30:47.546Z,16.43
2019-05-18T03:33:15.242Z,16.70
2019-05-18T03:35:42.896Z,18.23
2019-05-18T03:38:10.541Z,19.13
2019-05-18T03:40:38.226Z,16.47
2019-05-18T03:43:05.875Z,19.20
2019-05-18T03:45:33.551Z,16.50
2019-05-18T03:48:01.207Z,16.27
2019-05-18T03:50:28.875Z,14.67
2019-05-18T03:52:56.992Z,16.70
2019-05-18T03:55:24.644Z,15.80
2019-05-18T03:57:52.289Z,16.13
2019-05-18T04:00:19.930Z,15.47
2019-05-18T04:02:47.601Z,16.63
2019-05-18T04:05:15.247Z,16.80
2019-05-18T04:07:42.971Z,15.47
2019-05-18T04:10:10.764Z,17.20
2019-05-18T04:12:38.410Z,18.03
2019-05-18T04:15:06.054Z,15.33
2019-05-18T04:17:33.713Z,17.23
2019-05-18T04:20:01.393Z,18.03
2019-05-18T04:22:29.063Z,16.90
2019-05-18T04:24:56.732Z,14.73
2019-05-18T04:27:24.409Z,15.77
2019-05-18T04:29:52.056Z,12.77
2019-05-18T04:32:19.732Z,12.53
2019-05-18T04:34:47.395Z,11.77
2019-05-18T04:37:15.052Z,11.87
2019-05-18T04:39:42.703Z,13.83
2019-05-18T04:42:10.365Z,11.63
2019-05-18T04:44:38.037Z,11.30
2019-05-18T04:47:05.712Z,11.57
2019-05-18T04:49:33.380Z,12.43
2019-05-18T04:52:01.028Z,11.27
2019-05-18T04:54:28.674Z,9.93
2019-05-18T04:56:56.356Z,10.33
2019-05-18T04:59:23.996Z,9.67
2019-05-18T05:01:51.675Z,9.57
2019-05-18T05:04:19.318Z,9.87
2019-05-18T05:06:46.973Z,9.30
2019-05-18T05:09:14.619Z,10.07
2019-05-18T05:11:42.279Z,9.07
2019-05-18T05:14:09.925Z,9.73
2019-05-18T05:16:37.583Z,9.50
2019-05-18T05:19:08.530Z,10.30
2019-05-18T05:21:34.662Z,9.20
2019-05-18T05:24:02.323Z,9.03
2019-05-18T05:26:29.987Z,9.17
2019-05-18T05:28:57.633Z,8.90
2019-05-18T05:31:25.294Z,8.27
2019-05-18T05:33:53.008Z,8.57
2019-05-18T05:36:20.684Z,7.93
2019-05-18T05:38:48.328Z,6.43
2019-05-18T05:41:16.851Z,8.73
2019-05-18T05:43:44.734Z,7.40
2019-05-18T05:46:12.396Z,9.10
2019-05-18T05:48:40.120Z,6.83
2019-05-18T05:51:07.775Z,7.30
2019-05-18T05:53:35.444Z,7.40
2019-05-18T05:56:03.147Z,6.93
2019-05-18T05:58:30.834Z,8.43
2019-05-18T06:00:58.493Z,6.97
2019-05-18T06:03:26.155Z,7.13
2019-05-18T06:05:53.833Z,7.03
2019-05-18T06:08:21.538Z,7.03
2019-05-18T06:10:49.201Z,8.00
2019-05-18T06:13:16.914Z,6.80
2019-05-18T06:15:44.591Z,6.60
2019-05-18T06:18:12.229Z,7.60
2019-05-18T06:20:50.855Z,7.97
2019-05-18T06:23:09.232Z,7.90
2019-05-18T06:25:36.888Z,7.43
2019-05-18T06:28:04.537Z,10.23
2019-05-18T06:30:32.231Z,8.40
2019-05-18T06:32:59.976Z,8.57
2019-05-18T06:35:27.689Z,9.07
2019-05-18T06:37:55.452Z,7.90
2019-05-18T06:40:23.144Z,8.57
2019-05-18T06:42:50.780Z,7.87
2019-05-18T06:45:18.430Z,8.17
2019-05-18T06:47:48.411Z,8.83
2019-05-18T06:50:15.486Z,8.20
2019-05-18T06:52:43.172Z,9.50
2019-05-18T06:55:10.827Z,9.50
2019-05-18T06:57:38.477Z,9.27
2019-05-18T07:00:06.132Z,9.60
2019-05-18T07:02:33.815Z,9.87
2019-05-18T07:05:01.499Z,9.20
2019-05-18T07:07:29.236Z,9.20
2019-05-18T07:09:56.894Z,9.33
2019-05-18T07:12:24.539Z,8.63
2019-05-18T07:14:52.192Z,10.35
2019-05-18T07:17:19.836Z,9.10
2019-05-18T07:19:47.497Z,10.43
2019-05-18T07:22:15.187Z,10.53
2019-05-18T07:24:42.884Z,10.10
2019-05-18T07:27:10.540Z,10.37
2019-05-18T07:29:38.194Z,9.60
2019-05-18T07:32:05.827Z,9.73
2019-05-18T07:34:33.493Z,10.03
2019-05-18T07:37:01.208Z,9.97
2019-05-18T07:39:29.060Z,10.10
2019-05-18T07:41:56.712Z,9.47
2019-05-18T07:44:24.367Z,9.93
2019-05-18T07:46:52.019Z,9.97
2019-05-18T07:49:19.683Z,8.63
2019-05-18T07:51:47.320Z,9.20
2019-05-18T07:54:14.977Z,9.03
2019-05-18T07:56:42.627Z,8.10
2019-05-18T07:59:10.289Z,8.23
2019-05-18T08:01:37.953Z,8.43
2019-05-18T08:04:05.598Z,8.97
2019-05-18T08:06:33.279Z,10.00
2019-05-18T08:09:01.024Z,7.87
2019-05-18T08:11:28.846Z,10.83
2019-05-18T08:13:56.488Z,9.67
2019-05-18T08:16:24.144Z,9.40
2019-05-18T08:18:51.814Z,9.43
2019-05-18T08:21:19.465Z,8.90
2019-05-18T08:23:47.108Z,8.30
2019-05-18T08:26:14.861Z,6.87
2019-05-18T08:28:42.631Z,6.70
2019-05-18T08:31:10.284Z,8.00
2019-05-18T08:33:38.028Z,7.83
2019-05-18T08:36:05.687Z,8.37
2019-05-18T08:38:33.428Z,7.70
2019-05-18T08:41:01.121Z,9.10
2019-05-18T08:43:28.831Z,8.57
2019-05-18T08:45:56.629Z,8.50
2019-05-18T08:48:24.308Z,7.13
2019-05-18T08:50:51.976Z,7.10
2019-05-18T08:53:19.629Z,6.17
2019-05-18T08:55:47.395Z,7.17
2019-05-18T08:58:15.062Z,7.00
2019-05-18T09:00:42.712Z,7.07
2019-05-18T09:03:10.360Z,6.70
2019-05-18T09:05:38.020Z,6.77
2019-05-18T09:08:05.673Z,6.77
2019-05-18T09:10:33.323Z,7.57
2019-05-18T09:13:00.986Z,7.73
2019-05-18T09:15:28.633Z,6.63
2019-05-18T09:17:56.280Z,6.60
2019-05-18T09:20:23.925Z,7.00
2019-05-18T09:22:51.584Z,6.87
2019-05-18T09:25:19.276Z,7.20
2019-05-18T09:27:46.990Z,6.80
2019-05-18T09:30:14.667Z,7.97
2019-05-18T09:32:42.517Z,6.87
2019-05-18T09:35:10.168Z,6.13
2019-05-18T09:37:37.824Z,6.90
2019-05-18T09:40:05.477Z,6.47
2019-05-18T09:42:33.131Z,6.33
2019-05-18T09:45:00.903Z,5.97
2019-05-18T09:47:28.736Z,6.75
2019-05-18T09:49:56.574Z,5.87
2019-05-18T09:52:43.531Z,6.10
2019-05-18T09:54:53.577Z,6.77
2019-05-18T09:57:21.265Z,6.53
2019-05-18T09:59:49.164Z,5.87
2019-05-18T10:02:17.006Z,6.83
2019-05-18T10:04:44.685Z,5.77
2019-05-18T10:07:12.380Z,6.80
2019-05-18T10:09:40.068Z,5.87
2019-05-18T10:12:07.803Z,7.83
2019-05-18T10:14:35.500Z,5.90
2019-05-18T10:17:03.217Z,6.37
2019-05-18T10:19:31.000Z,6.77
2019-05-18T10:21:58.709Z,5.65
2019-05-18T10:24:26.349Z,7.43
2019-05-18T10:26:54.005Z,7.70
2019-05-18T10:29:21.678Z,6.40
2019-05-18T10:31:49.335Z,5.80
2019-05-18T10:34:16.976Z,6.13
2019-05-18T10:36:44.641Z,5.70
2019-05-18T10:39:25.417Z,6.00
2019-05-18T10:41:53.143Z,5.87
2019-05-18T10:44:20.780Z,5.55
2019-05-18T10:46:48.470Z,5.78
2019-05-18T10:49:16.116Z,6.30
2019-05-18T10:51:43.777Z,6.05
2019-05-18T10:54:11.460Z,6.83
2019-05-18T10:56:39.110Z,6.05
2019-05-18T10:59:06.755Z,5.80
2019-05-18T11:01:34.417Z,5.67
2019-05-18T11:04:02.079Z,6.90
2019-05-18T11:06:30.309Z,6.00
2019-05-18T11:08:58.168Z,6.20
2019-05-18T11:11:25.816Z,7.07
2019-05-18T11:13:53.517Z,8.13
2019-05-18T11:16:21.170Z,6.65
2019-05-18T11:18:48.837Z,6.37
2019-05-18T11:21:16.486Z,6.40
2019-05-18T11:23:47.866Z,6.83
2019-05-18T11:26:14.103Z,6.63
2019-05-18T11:28:41.784Z,7.87
2019-05-18T11:31:09.427Z,6.93
2019-05-18T11:33:37.142Z,5.90
2019-05-18T11:36:04.824Z,5.83
2019-05-18T11:38:32.485Z,6.60
2019-05-18T11:41:00.248Z,6.73
2019-05-18T11:43:27.957Z,6.08
2019-05-18T11:45:55.596Z,7.10
2019-05-18T11:48:23.340Z,9.20
2019-05-18T11:50:50.992Z,7.93
2019-05-18T11:53:18.659Z,6.13
2019-05-18T11:55:46.376Z,6.78
2019-05-18T11:58:14.396Z,6.80
2019-05-18T12:00:42.058Z,6.53
2019-05-18T12:03:09.800Z,7.60
2019-05-18T12:05:37.447Z,8.03
2019-05-18T12:08:05.147Z,7.22
2019-05-18T12:10:32.792Z,8.00
2019-05-18T12:13:00.457Z,6.95
2019-05-18T12:15:28.202Z,7.50
2019-05-18T12:17:55.948Z,7.60
2019-05-18T12:20:23.602Z,7.40
2019-05-18T12:22:51.325Z,7.60
2019-05-18T12:25:19.090Z,8.27
2019-05-18T12:27:46.889Z,8.13
2019-05-18T12:30:14.855Z,9.03
2019-05-18T12:32:42.535Z,8.33
2019-05-18T12:35:10.186Z,9.13
2019-05-18T12:37:37.827Z,8.53
2019-05-18T12:40:05.499Z,8.07
2019-05-18T12:42:33.230Z,8.47
2019-05-18T12:45:01.115Z,8.83
2019-05-18T12:47:28.860Z,8.90
2019-05-18T12:49:56.607Z,8.73
2019-05-18T12:52:24.284Z,9.83
2019-05-18T12:54:51.932Z,9.00
2019-05-18T12:57:19.579Z,9.90
2019-05-18T12:59:47.325Z,8.83
2019-05-18T13:02:15.341Z,8.80
2019-05-18T13:04:43.160Z,7.53
2019-05-18T13:07:10.819Z,8.40
2019-05-18T13:09:38.482Z,8.40
2019-05-18T13:12:06.129Z,9.35
2019-05-18T13:14:33.792Z,8.95
2019-05-18T13:17:01.461Z,9.73
2019-05-18T13:19:29.116Z,9.60
2019-05-18T13:21:56.781Z,8.95
2019-05-18T13:24:24.531Z,11.75
2019-05-18T13:26:52.332Z,9.17
2019-05-18T13:29:20.170Z,8.88
2019-05-18T13:31:47.811Z,10.15
2019-05-18T13:34:15.551Z,8.20
2019-05-18T13:36:43.208Z,9.13
2019-05-18T13:39:10.872Z,8.60
2019-05-18T13:41:38.566Z,8.75
2019-05-18T13:44:06.390Z,8.93
2019-05-18T13:46:34.043Z,9.27
2019-05-18T13:49:01.674Z,9.25
2019-05-18T13:51:29.493Z,9.25
2019-05-18T13:53:57.441Z,9.73
2019-05-18T13:56:25.110Z,9.78
2019-05-18T13:58:53.020Z,9.97
2019-05-18T14:01:20.718Z,9.35
2019-05-18T14:03:48.437Z,10.15
2019-05-18T14:06:16.451Z,9.80
2019-05-18T14:08:44.216Z,9.97
2019-05-18T14:11:12.093Z,9.57
2019-05-18T14:13:39.885Z,11.33
2019-05-18T14:16:07.632Z,13.20
2019-05-18T14:18:35.303Z,10.70
2019-05-18T14:21:02.951Z,10.67
2019-05-18T14:23:30.612Z,11.48
2019-05-18T14:25:58.268Z,10.15
2019-05-18T14:28:25.933Z,10.70
2019-05-18T14:30:53.589Z,10.15
2019-05-18T14:33:21.299Z,10.93
2019-05-18T14:35:49.190Z,10.70
2019-05-18T14:38:16.854Z,10.97
2019-05-18T14:40:44.530Z,10.90
2019-05-18T14:43:12.194Z,10.73
2019-05-18T14:45:39.922Z,10.80
2019-05-18T14:48:07.765Z,11.18
2019-05-18T14:50:35.516Z,10.47
2019-05-18T14:53:03.183Z,10.45
2019-05-18T14:55:33.605Z,9.53
2019-05-18T14:58:00.296Z,10.20
2019-05-18T15:00:27.991Z,11.00
2019-05-18T15:02:55.856Z,10.63
2019-05-18T15:05:23.515Z,10.70
2019-05-18T15:07:51.159Z,11.95
2019-05-18T15:10:18.833Z,10.88
2019-05-18T15:12:46.483Z,12.63
2019-05-18T15:15:14.363Z,11.10
2019-05-18T15:17:42.188Z,10.57
2019-05-18T15:20:10.167Z,10.73
2019-05-18T15:22:37.925Z,11.57
2019-05-18T15:25:05.601Z,11.43
2019-05-18T15:27:33.270Z,11.00
2019-05-18T15:30:00.921Z,11.00
2019-05-18T15:32:28.595Z,10.83
2019-05-18T15:34:56.263Z,10.58
2019-05-18T15:37:23.937Z,11.53
2019-05-18T15:39:51.645Z,10.93
2019-05-18T15:42:19.531Z,10.82
2019-05-18T15:44:47.311Z,11.50
2019-05-18T15:47:14.977Z,10.93
2019-05-18T15:49:42.637Z,11.13
2019-05-18T15:52:10.342Z,11.30
2019-05-18T15:54:38.050Z,11.43
2019-05-18T15:57:05.865Z,11.78
2019-05-18T15:59:33.684Z,10.72
2019-05-18T16:02:06.105Z,11.30
2019-05-18T16:04:30.825Z,11.08
2019-05-18T16:06:58.488Z,14.93
2019-05-18T16:09:26.195Z,16.12
2019-05-18T16:11:54.127Z,13.93
2019-05-18T16:14:21.820Z,11.63
2019-05-18T16:16:54.412Z,12.70
2019-05-18T16:19:18.933Z,12.53
2019-05-18T16:21:46.601Z,10.90
2019-05-18T16:24:14.264Z,12.63
2019-05-18T16:26:41.921Z,11.35
2019-05-18T16:29:09.663Z,11.43
2019-05-18T16:31:37.317Z,13.30
2019-05-18T16:34:04.994Z,13.67
2019-05-18T16:36:32.667Z,12.33
2019-05-18T16:39:00.324Z,12.70
2019-05-18T16:41:27.985Z,10.97
2019-05-18T16:43:55.833Z,11.73
2019-05-18T16:46:23.674Z,16.52
2019-05-18T16:48:51.341Z,23.10
2019-05-18T16:51:19.007Z,12.37
2019-05-18T16:53:50.068Z,11.90
2019-05-18T16:56:16.045Z,26.45
2019-05-18T16:58:43.724Z,17.90
2019-05-18T17:01:11.393Z,11.80
2019-05-18T17:03:39.154Z,18.23
2019-05-18T17:06:07.141Z,14.20
2019-05-18T17:08:34.868Z,12.35
2019-05-18T17:11:02.525Z,13.20
2019-05-18T17:13:30.176Z,11.10
2019-05-18T17:15:57.835Z,12.73
2019-05-18T17:18:25.553Z,11.70
2019-05-18T17:20:53.208Z,11.60
2019-05-18T17:23:20.929Z,12.77
2019-05-18T17:25:48.663Z,12.37
2019-05-18T17:28:16.332Z,15.80
2019-05-18T17:30:43.985Z,14.00
2019-05-18T17:33:11.673Z,13.38
2019-05-18T17:35:39.403Z,14.23
2019-05-18T17:38:07.270Z,12.83
2019-05-18T17:40:35.068Z,12.73
2019-05-18T17:43:02.795Z,13.17
2019-05-18T17:45:30.487Z,14.93
2019-05-18T17:47:58.208Z,15.38
2019-05-18T17:50:25.861Z,13.83
2019-05-18T17:52:53.574Z,14.37
2019-05-18T17:55:21.389Z,14.35
2019-05-18T17:57:49.053Z,13.97
2019-05-18T18:00:16.713Z,14.13
2019-05-18T18:02:44.349Z,14.38
2019-05-18T18:05:12.008Z,14.30
2019-05-18T18:07:39.655Z,14.13
2019-05-18T18:10:07.719Z,14.20
2019-05-18T18:12:35.592Z,14.73
2019-05-18T18:15:03.261Z,16.97
2019-05-18T18:17:31.087Z,14.90
2019-05-18T18:19:58.744Z,16.13
2019-05-18T18:22:26.417Z,16.63
2019-05-18T18:24:54.103Z,17.87
2019-05-18T18:27:25.124Z,17.82
2019-05-18T18:29:51.144Z,19.12
2019-05-18T18:32:18.814Z,17.70
2019-05-18T18:34:46.472Z,21.17
2019-05-18T18:37:14.133Z,20.60
2019-05-18T18:39:41.788Z,19.00
2019-05-18T18:42:09.479Z,19.30
2019-05-18T18:44:37.193Z,21.43
2019-05-18T18:47:04.866Z,22.55
2019-05-18T18:49:32.540Z,20.23
2019-05-18T18:52:00.429Z,21.03
2019-05-18T18:54:28.120Z,19.65
2019-05-18T18:56:56.102Z,22.32
2019-05-18T18:59:23.752Z,20.87
2019-05-18T19:01:51.411Z,25.40
2019-05-18T19:04:19.158Z,25.23
2019-05-18T19:06:46.814Z,26.42
2019-05-18T19:09:14.489Z,28.83
2019-05-18T19:11:42.144Z,33.85
2019-05-18T19:14:09.804Z,38.90
2019-05-18T19:16:37.452Z,48.93
2019-05-18T19:19:05.120Z,38.60
2019-05-18T19:21:32.784Z,36.00
2019-05-18T19:24:00.467Z,36.87
2019-05-18T19:26:28.327Z,32.80
2019-05-18T19:28:56.096Z,26.63
2019-05-18T19:31:23.749Z,28.20
2019-05-18T19:33:51.403Z,27.75
2019-05-18T19:36:19.261Z,28.30
2019-05-18T19:38:47.005Z,27.17
2019-05-18T19:41:14.844Z,26.20
2019-05-18T19:43:42.584Z,24.00
2019-05-18T19:46:10.282Z,27.33
2019-05-18T19:48:37.942Z,25.02
2019-05-18T19:51:05.595Z,26.87
2019-05-18T19:53:33.248Z,23.60
2019-05-18T19:56:00.935Z,24.27
2019-05-18T19:58:28.596Z,23.73
2019-05-18T20:00:56.248Z,25.27
2019-05-18T20:03:23.934Z,25.02
2019-05-18T20:05:51.597Z,25.03
2019-05-18T20:08:19.279Z,28.57
2019-05-18T20:10:46.938Z,24.93
2019-05-18T20:13:14.675Z,27.13
2019-05-18T20:15:42.422Z,27.27
2019-05-18T20:18:10.351Z,25.67
2019-05-18T20:20:37.998Z,25.93
2019-05-18T20:23:08.190Z,28.37
2019-05-18T20:25:35.005Z,27.10
2019-05-18T20:28:02.692Z,26.03
2019-05-18T20:30:30.487Z,27.07
2019-05-18T20:32:58.178Z,28.57
2019-05-18T20:35:26.022Z,29.30
2019-05-18T20:37:53.806Z,29.00
2019-05-18T20:40:21.557Z,28.40
2019-05-18T20:42:49.317Z,31.33
2019-05-18T20:45:17.107Z,29.07
2019-05-18T20:47:44.802Z,31.17
2019-05-18T20:50:12.536Z,36.33
2019-05-18T20:52:40.212Z,35.47
2019-05-18T20:55:07.885Z,34.67
2019-05-18T20:57:35.543Z,33.97
2019-05-18T21:00:03.249Z,33.30
2019-05-18T21:02:30.938Z,35.07
2019-05-18T21:04:58.592Z,39.20
2019-05-18T21:07:26.322Z,34.77
2019-05-18T21:09:54.151Z,36.50
2019-05-18T21:12:21.800Z,37.53
2019-05-18T21:14:49.465Z,37.37
2019-05-18T21:17:17.132Z,36.97
2019-05-18T21:19:44.785Z,40.33
2019-05-18T21:22:12.548Z,39.13
2019-05-18T21:24:40.303Z,39.40
2019-05-18T21:27:07.956Z,38.93
2019-05-18T21:29:35.620Z,40.87
2019-05-18T21:32:03.388Z,45.17
2019-05-18T21:34:31.041Z,44.10
2019-05-18T21:36:58.797Z,45.97
2019-05-18T21:39:26.556Z,43.57
2019-05-18T21:41:54.264Z,40.73
2019-05-18T21:44:21.932Z,39.80
2019-05-18T21:46:49.584Z,39.80
2019-05-18T21:49:17.249Z,39.23
2019-05-18T21:51:45.008Z,39.83
2019-05-18T21:54:12.741Z,39.60
2019-05-18T21:56:40.461Z,39.03
2019-05-18T21:59:11.871Z,45.73
2019-05-18T22:01:37.592Z,43.40
2019-05-18T22:04:05.345Z,45.63
2019-05-18T22:06:33.226Z,44.67
2019-05-18T22:09:01.122Z,46.90
2019-05-18T22:11:28.876Z,44.27
2019-05-18T22:13:56.733Z,43.67
2019-05-18T22:16:24.480Z,42.03
2019-05-18T22:18:52.156Z,44.17
2019-05-18T22:21:19.824Z,45.23
2019-05-18T22:23:47.472Z,47.40
2019-05-18T22:26:15.147Z,41.07
2019-05-18T22:28:42.880Z,42.73
2019-05-18T22:31:10.562Z,44.57
2019-05-18T22:33:38.192Z,43.50
2019-05-18T22:36:05.857Z,45.23
2019-05-18T22:38:33.522Z,37.43
2019-05-18T22:41:01.404Z,39.77
2019-05-18T22:43:29.271Z,37.53
2019-05-18T22:45:56.963Z,37.53
2019-05-18T22:48:38.921Z,36.97
2019-05-18T22:50:54.009Z,36.90
2019-05-18T22:53:21.739Z,37.37
2019-05-18T22:55:49.538Z,33.97
2019-05-18T22:58:17.321Z,37.90
2019-05-18T23:00:44.995Z,36.83
2019-05-18T23:03:12.658Z,35.63
2019-05-18T23:05:40.444Z,36.27
2019-05-18T23:08:08.164Z,36.10
2019-05-18T23:10:35.922Z,35.97
2019-05-18T23:13:03.662Z,37.87
2019-05-18T23:15:31.345Z,37.43
2019-05-18T23:17:59.004Z,37.37
2019-05-18T23:20:26.676Z,37.50
2019-05-18T23:22:54.327Z,36.77
2019-05-18T23:25:22.004Z,36.80
2019-05-18T23:27:49.668Z,36.13
2019-05-18T23:30:17.327Z,36.33
2019-05-18T23:32:44.985Z,35.17
2019-05-18T23:35:12.923Z,36.53
2019-05-18T23:37:40.983Z,35.13
2019-05-18T23:40:08.641Z,37.30
2019-05-18T23:42:36.567Z,38.30
2019-05-18T23:45:04.213Z,37.50
2019-05-18T23:47:31.868Z,40.07
2019-05-18T23:49:59.690Z,38.07
2019-05-18T23:52:27.477Z,37.43
2019-05-18T23:54:55.124Z,38.23
2019-05-18T23:57:22.787Z,39.93
2019-05-18T23:59:50.444Z,41.23
